Time;durP1;ratioP1;P1;durP2;ratioP2;P2;SDS_P1;SDS_P2;PMS_P1;PMS_P2;Temp;Humidity;BMP_temperature;BMP_pressure;BME280_temperature;BME280_humidity;BME280_pressure;Samples;Min_cycle;Max_cycle;Signal;HPM_P1;HPM_P2
2022/05/18 00:02:50;;;;;;;2.15;1.40;;;18.60;40.20;;;16.64;45.69;102024.25;12237997;19;20011;-79
2022/05/18 00:06:52;;;;;;;2.40;1.40;;;18.60;40.20;;;16.58;45.43;102015.75;12240400;19;20002;-79
2022/05/18 00:10:55;;;;;;;1.30;1.20;;;18.50;40.00;;;16.48;45.47;102011.97;12235210;19;20340;-79
2022/05/18 00:14:58;;;;;;;4.68;1.52;;;18.40;40.00;;;16.58;45.43;102033.38;12234925;19;20011;-79
2022/05/18 00:19:00;;;;;;;3.40;1.20;;;18.40;39.80;;;16.54;45.19;102045.03;12238610;19;20050;-79
2022/05/18 00:23:04;;;;;;;4.30;1.48;;;18.30;39.70;;;16.49;45.20;102047.09;12237384;19;20014;-79
2022/05/18 00:27:06;;;;;;;1.40;1.30;;;18.40;39.60;;;16.35;45.28;102043.47;12238135;19;20039;-79
2022/05/18 00:31:09;;;;;;;2.55;1.40;;;18.30;39.50;;;16.33;45.28;102052.41;12236968;19;20025;-79
2022/05/18 00:35:12;;;;;;;1.58;1.30;;;18.40;39.60;;;16.18;44.99;102035.72;12236071;19;20043;-79
2022/05/18 00:39:13;;;;;;;2.22;1.38;;;18.20;39.60;;;15.98;45.11;102015.75;12236635;19;20341;-79
2022/05/18 00:43:29;;;;;;;3.60;1.42;;;18.30;39.50;;;16.19;44.75;102074.28;12233583;19;20369;-79
2022/05/18 00:47:30;;;;;;;2.58;1.30;;;18.20;39.50;;;15.99;44.92;102056.16;12243663;19;20018;-79
2022/05/18 00:51:49;;;;;;;1.25;1.13;;;18.10;39.30;;;16.02;44.78;102074.41;12241597;19;20018;-79
2022/05/18 00:56:06;;;;;;;3.53;1.33;;;18.10;39.10;;;15.83;44.33;102059.63;12241254;19;20018;-79
2022/05/18 01:00:13;;;;;;;1.25;1.13;;;17.90;38.80;;;15.89;44.35;102080.38;12236278;19;20014;-79
2022/05/18 01:04:16;;;;;;;2.25;1.10;;;18.00;38.70;;;15.72;44.55;102069.94;12244121;19;20013;-78
2022/05/18 01:09:02;;;;;;;3.53;0.98;;;17.90;38.60;;;15.90;44.01;102107.56;12244647;19;20014;-79
2022/05/18 01:13:04;;;;;;;;;;;17.90;38.50;;;15.70;44.53;102077.06;12248398;19;20039;-79
2022/05/18 01:17:07;;;;;;;3.22;1.08;;;17.90;38.90;;;15.80;44.27;102115.13;12249470;19;19927;-78
2022/05/18 01:21:09;;;;;;;3.88;1.05;;;17.90;38.30;;;15.73;44.01;102116.38;12248245;19;20507;-78
2022/05/18 01:26:02;;;;;;;1.10;0.80;;;17.70;38.10;;;15.75;43.82;102117.16;12244353;19;20050;-79
2022/05/18 01:30:06;;;;;;;3.30;0.70;;;17.70;37.80;;;15.69;43.62;102122.78;12244578;19;20022;-78
2022/05/18 01:34:08;;;;;;;1.70;0.90;;;17.70;37.70;;;15.68;43.65;102124.53;12244923;19;20504;-78
2022/05/18 01:38:14;;;;;;;0.70;0.70;;;17.70;37.80;;;15.66;43.60;102154.47;12242125;19;20022;-79
2022/05/18 01:42:33;;;;;;;2.88;0.80;;;17.70;37.50;;;15.56;43.57;102134.88;12245275;19;20385;-78
2022/05/18 01:46:35;;;;;;;3.95;1.73;;;17.70;37.60;;;15.53;43.53;102145.53;12245392;19;20014;-78
2022/05/18 01:50:37;;;;;;;1.73;0.75;;;17.50;37.50;;;15.43;43.45;102142.56;12238921;19;20043;-78
2022/05/18 01:54:44;;;;;;;0.77;0.60;;;17.50;37.50;;;15.33;43.33;102139.56;12241825;19;20033;-78
2022/05/18 01:58:46;;;;;;;1.10;0.73;;;17.50;37.50;;;15.20;43.33;102135.84;12244223;19;20019;-78
2022/05/18 02:02:47;;;;;;;1.63;0.85;;;17.50;37.50;;;15.32;43.37;102164.19;12244805;19;20025;-78
2022/05/18 02:06:49;;;;;;;0.93;0.65;;;17.30;37.40;;;15.24;43.34;102171.63;12245271;19;20018;-78
2022/05/18 02:10:51;;;;;;;11.55;0.85;;;17.30;37.40;;;14.97;43.03;102137.91;12242633;19;20333;-78
2022/05/18 02:14:52;;;;;;;2.85;0.95;;;17.30;37.10;;;15.01;43.28;102155.25;12240804;19;20035;-78
2022/05/18 02:18:54;;;;;;;1.67;0.80;;;17.10;37.20;;;14.77;43.11;102110.00;12243330;19;20455;-78
2022/05/18 02:22:56;;;;;;;0.88;0.77;;;17.10;37.00;;;14.95;43.18;102155.53;12242960;19;20014;-78
2022/05/18 02:26:58;;;;;;;1.95;0.70;;;17.10;37.40;;;14.85;42.94;102138.50;12242746;19;20812;-78
2022/05/18 02:31:00;;;;;;;1.15;0.60;;;17.10;37.00;;;14.74;42.81;102136.44;12240966;19;20090;-78
2022/05/18 02:35:02;;;;;;;1.42;0.60;;;16.80;36.80;;;14.82;42.81;102154.44;12241908;19;20018;-78
2022/05/18 02:39:03;;;;;;;0.65;0.65;;;17.00;36.90;;;14.71;42.83;102148.88;12241703;19;20468;-78
2022/05/18 02:43:05;;;;;;;1.25;0.63;;;16.90;36.80;;;14.55;42.83;102140.91;12243810;19;20414;-78
2022/05/18 02:47:07;;;;;;;1.13;0.50;;;16.90;36.70;;;14.65;42.64;102164.97;12242422;19;20022;-78
2022/05/18 02:51:11;;;;;;;1.05;0.60;;;16.80;36.70;;;14.58;42.58;102164.41;12243742;19;20129;-78
2022/05/18 02:59:34;;;;;;;1.20;0.77;;;16.70;36.60;;;14.52;42.56;102176.06;12241092;19;20014;-78
2022/05/18 03:03:36;;;;;;;1.05;0.70;;;16.70;36.70;;;14.48;42.47;102173.66;12239284;19;20092;-78
2022/05/18 03:07:38;;;;;;;0.95;0.77;;;16.70;36.50;;;14.48;42.35;102187.63;12237970;19;20079;-78
2022/05/18 03:11:40;;;;;;;0.50;0.50;;;16.50;36.30;;;14.45;42.36;102187.78;12239045;19;20772;-78
2022/05/18 03:15:42;;;;;;;0.55;0.55;;;16.40;36.50;;;14.39;42.11;102180.19;12239298;19;20018;-78
2022/05/18 03:19:43;;;;;;;0.55;0.55;;;16.50;36.40;;;14.45;42.26;102200.94;12239917;19;20018;-78
2022/05/18 03:23:45;;;;;;;0.60;0.60;;;16.50;36.40;;;14.40;42.25;102197.66;12238989;19;20019;-78
2022/05/18 03:27:47;;;;;;;0.75;0.60;;;16.50;36.40;;;14.28;42.24;102190.34;12239625;19;20488;-78
2022/05/18 03:31:49;;;;;;;1.52;0.77;;;16.40;36.50;;;14.26;42.01;102187.81;12240154;19;20019;-78
2022/05/18 03:35:52;;;;;;;0.50;0.50;;;16.40;36.40;;;14.26;41.98;102205.38;12238053;19;20814;-78
2022/05/18 03:39:53;;;;;;;0.60;0.52;;;16.40;36.50;;;14.26;42.15;102221.13;12238920;19;20015;-78
2022/05/18 03:43:55;;;;;;;0.75;0.52;;;16.30;36.50;;;14.16;42.29;102210.19;12236830;19;20015;-78
2022/05/18 03:47:57;;;;;;;0.60;0.60;;;16.30;36.60;;;13.91;42.14;102185.06;12236776;19;20496;-78
2022/05/18 03:52:00;;;;;;;0.65;0.60;;;16.70;36.80;;;14.01;42.17;102224.84;12237123;19;20465;-78
2022/05/18 03:56:03;;;;;;;0.85;0.68;;;16.00;36.40;;;13.65;42.14;102169.63;12238529;19;20010;-78
2022/05/18 04:00:06;;;;;;;1.08;0.57;;;16.10;36.50;;;13.89;42.29;102212.31;12235494;19;20013;-78
2022/05/18 04:04:08;;;;;;;1.42;0.55;;;16.10;36.60;;;13.72;42.25;102190.28;12219433;19;20471;-78
2022/05/18 04:08:11;;;;;;;0.75;0.60;;;15.80;36.50;;;13.77;42.25;102205.84;12234920;19;20018;-78
2022/05/18 04:12:13;;;;;;;1.33;0.82;;;16.00;36.60;;;13.72;42.07;102202.56;12236335;19;20023;-78
2022/05/18 04:16:15;;;;;;;1.35;0.70;;;15.80;36.50;;;13.68;42.06;102198.34;12237971;19;20464;-78
2022/05/18 04:20:20;;;;;;;2.25;1.23;;;15.90;36.40;;;13.68;42.10;102193.94;12237542;19;20010;-78
2022/05/18 04:24:22;;;;;;;0.73;0.73;;;15.90;36.70;;;13.84;42.22;102232.66;12231903;19;20018;-78
2022/05/18 04:28:24;;;;;;;0.57;0.57;;;15.90;36.70;;;13.85;42.14;102231.72;12234145;19;20014;-78
2022/05/18 04:32:26;;;;;;;1.33;0.50;;;15.80;36.60;;;13.80;42.07;102220.56;12229404;19;20544;-78
2022/05/18 04:36:27;;;;;;;0.63;0.60;;;15.90;36.60;;;13.79;42.04;102216.25;12221405;19;20014;-78
2022/05/18 04:40:29;;;;;;;1.15;0.85;;;15.90;36.80;;;13.77;42.02;102204.97;12225356;19;20027;-78
2022/05/18 04:44:30;;;;;;;1.70;0.60;;;15.90;36.60;;;13.97;42.10;102232.97;12219441;19;20018;-78
2022/05/18 04:48:33;;;;;;;0.63;0.63;;;16.00;36.70;;;14.00;42.10;102233.66;12224327;19;20015;-78
2022/05/18 04:52:34;;;;;;;2.72;0.77;;;16.00;36.80;;;13.76;42.06;102184.88;12226955;19;20033;-78
2022/05/18 04:56:36;;;;;;;0.90;0.70;;;15.90;37.20;;;14.17;41.79;102239.00;12229534;19;20018;-78
2022/05/18 05:00:39;;;;;;;0.75;0.65;;;16.10;36.80;;;14.05;41.92;102213.31;12226866;19;20034;-78
2022/05/18 05:04:41;;;;;;;1.02;0.60;;;16.00;36.60;;;14.24;41.81;102236.94;12225208;19;20075;-78
2022/05/18 05:08:42;;;;;;;2.08;0.90;;;16.40;36.70;;;14.28;41.83;102229.78;12229425;19;20468;-78
2022/05/18 05:12:45;;;;;;;0.73;0.70;;;16.30;36.70;;;14.50;41.87;102254.13;12230083;19;20018;-78
2022/05/18 05:16:48;;;;;;;1.02;0.70;;;16.40;36.70;;;14.53;41.81;102250.56;12229602;19;20014;-78
2022/05/18 05:20:49;;;;;;;0.68;0.68;;;16.40;36.60;;;14.56;41.67;102239.88;12232834;19;20011;-78
2022/05/18 05:24:51;;;;;;;1.38;0.60;;;16.50;36.60;;;14.75;41.71;102267.00;12229093;19;20357;-78
2022/05/18 05:28:53;;;;;;;0.90;0.77;;;16.60;36.70;;;14.77;41.60;102253.75;12230719;19;20035;-78
2022/05/18 05:32:54;;;;;;;4.68;1.00;;;17.00;36.80;;;14.73;41.76;102241.69;12240048;19;20018;-78
2022/05/18 05:36:56;;;;;;;0.68;0.68;;;16.70;36.80;;;14.70;41.78;102215.56;12241458;19;20010;-79
2022/05/18 05:41:00;;;;;;;1.85;0.80;;;16.90;36.90;;;15.04;41.75;102262.06;12241180;19;20017;-78
2022/05/18 05:45:02;;;;;;;0.55;0.55;;;17.00;36.80;;;15.08;41.61;102254.91;12236648;19;20050;-77
2022/05/18 05:49:03;;;;;;;0.88;0.75;;;17.10;36.80;;;15.14;41.43;102257.22;12240406;19;20034;-77
2022/05/18 05:53:05;;;;;;;0.85;0.68;;;17.20;36.80;;;15.15;41.53;102240.50;12242321;19;20043;-78
2022/05/18 05:57:07;;;;;;;2.40;0.77;;;17.10;36.50;;;15.38;41.70;102255.13;12240626;19;20499;-77
2022/05/18 06:01:12;;;;;;;1.52;0.75;;;17.30;36.60;;;15.32;41.32;102229.13;12241250;19;20014;-78
2022/05/18 06:05:14;;;;;;;0.80;0.80;;;17.30;36.50;;;15.54;41.38;102250.78;12238307;19;20480;-77
2022/05/18 06:09:16;;;;;;;3.28;0.80;;;17.50;36.60;;;15.73;41.26;102268.31;12240235;19;20270;-78
2022/05/18 06:13:18;;;;;;;1.02;0.77;;;17.50;36.50;;;15.65;41.06;102231.81;12240805;19;20022;-77
2022/05/18 06:17:20;;;;;;;0.73;0.70;;;17.70;36.40;;;15.86;41.08;102261.47;12240006;19;20025;-77
2022/05/18 06:21:21;;;;;;;1.98;0.80;;;17.70;36.40;;;16.01;41.04;102283.50;12240232;19;20010;-78
2022/05/18 06:25:23;;;;;;;0.90;0.57;;;17.80;36.40;;;16.01;41.29;102268.53;12235551;19;20048;-77
2022/05/18 06:29:25;;;;;;;0.90;0.80;;;17.90;36.50;;;16.02;40.85;102248.34;12238573;19;20094;-77
2022/05/18 06:33:26;;;;;;;1.48;0.98;;;18.00;36.30;;;16.32;41.13;102291.47;12236840;19;20476;-77
2022/05/18 06:37:28;;;;;;;1.60;1.20;;;18.10;36.40;;;16.44;41.00;102297.00;12229154;19;20010;-77
2022/05/18 06:41:32;;;;;;;1.20;0.90;;;18.30;36.20;;;16.55;40.97;102294.63;12224266;19;20026;-77
2022/05/18 06:45:33;;;;;;;1.45;1.05;;;18.30;36.20;;;16.53;40.76;102272.78;12232376;19;20021;-77
2022/05/18 06:49:35;;;;;;;2.15;0.95;;;18.50;36.20;;;16.79;40.61;102298.56;12226428;19;20014;-76
2022/05/18 06:53:36;;;;;;;1.90;1.23;;;18.60;36.10;;;16.76;40.39;102290.78;12229403;19;20093;-77
2022/05/18 06:57:38;;;;;;;0.85;0.80;;;18.70;36.00;;;16.95;40.49;102313.53;12227038;19;20019;-78
2022/05/18 07:01:40;;;;;;;1.73;0.85;;;18.80;35.90;;;17.01;40.41;102302.63;12226200;19;20030;-78
2022/05/18 07:05:43;;;;;;;1.48;0.85;;;18.90;36.00;;;17.05;40.27;102296.25;12227184;19;20510;-78
2022/05/18 07:09:44;;;;;;;3.10;1.13;;;18.90;35.90;;;17.27;40.31;102311.69;12226705;19;20022;-78
2022/05/18 07:13:51;;;;;;;0.95;0.93;;;19.10;36.00;;;17.40;40.38;102301.28;12223223;19;20022;-77
2022/05/18 07:17:52;;;;;;;1.63;0.88;;;19.20;36.00;;;17.59;40.40;102307.16;12225587;19;20015;-79
2022/05/18 07:21:54;;;;;;;1.40;1.05;;;19.20;35.80;;;17.78;40.25;102298.97;12220951;19;20018;-77
2022/05/18 07:25:58;;;;;;;2.17;1.20;;;19.40;36.00;;;17.94;40.28;102301.56;12220668;19;20014;-78
2022/05/18 07:30:02;;;;;;;2.90;1.25;;;19.60;35.80;;;17.92;40.05;102266.44;12221422;19;20039;-78
2022/05/18 07:34:04;;;;;;;1.80;0.90;;;19.80;35.90;;;18.05;40.10;102269.19;12226465;19;20449;-78
2022/05/18 07:38:07;;;;;;;1.65;1.02;;;19.80;36.00;;;18.26;40.07;102267.84;12224215;19;20018;-78
2022/05/18 07:42:09;;;;;;;1.27;1.10;;;20.00;35.70;;;18.50;40.16;102286.63;12223791;19;20022;-77
2022/05/18 07:46:11;;;;;;;5.45;1.65;;;20.30;35.90;;;18.74;39.88;102288.59;12224386;19;20102;-79
2022/05/18 07:50:12;;;;;;;3.30;1.27;;;20.40;35.90;;;19.01;39.74;102299.25;12224604;19;20082;-78
2022/05/18 07:54:14;;;;;;;1.88;1.13;;;20.60;35.90;;;18.94;39.36;102255.59;12222034;19;20382;-78
2022/05/18 07:58:19;;;;;;;3.17;1.10;;;20.80;35.60;;;19.29;39.31;102298.25;12222719;19;20377;-78
2022/05/18 08:02:20;;;;;;;1.83;1.20;;;20.90;35.40;;;19.38;39.05;102310.88;12210864;19;20597;-79
2022/05/18 08:06:22;;;;;;;1.17;1.08;;;21.20;35.40;;;19.15;39.05;102266.56;12188214;19;20859;-79
2022/05/18 08:19:10;;;;;;;2.45;1.23;;;21.40;35.50;;;19.79;39.25;102279.88;12211906;19;20018;-77
2022/05/18 08:23:12;;;;;;;2.10;1.20;;;21.50;35.50;;;19.97;39.04;102275.97;12211642;19;20408;-76
2022/05/18 08:27:16;;;;;;;4.90;1.48;;;21.70;35.60;;;20.08;38.99;102257.47;12213388;19;20014;-76
2022/05/18 08:31:17;;;;;;;5.07;1.38;;;21.80;35.40;;;20.38;38.96;102285.41;12209800;19;20731;-77
2022/05/18 08:35:19;;;;;;;1.63;1.50;;;22.00;35.50;;;20.64;38.70;102302.16;12204602;19;20050;-76
2022/05/18 08:39:21;;;;;;;3.70;1.45;;;22.20;35.30;;;20.62;38.64;102272.22;12213684;19;20542;-76
2022/05/18 08:43:33;;;;;;;1.95;1.50;;;22.40;35.20;;;20.75;38.66;102285.44;12207207;19;20025;-77
2022/05/18 08:47:43;;;;;;;5.05;1.73;;;22.40;35.00;;;20.87;38.75;102283.69;12212337;19;20016;-78
2022/05/18 08:52:03;;;;;;;1.65;1.30;;;22.40;35.30;;;21.07;38.62;102284.88;12212175;19;20083;-77
2022/05/18 08:56:17;;;;;;;2.72;1.40;;;22.70;35.40;;;21.17;38.74;102261.94;12208970;19;20110;-76
2022/05/18 09:00:28;;;;;;;1.92;1.50;;;22.80;35.50;;;21.52;38.54;102277.91;12209922;19;20018;-78
2022/05/18 09:05:06;;;;;;;1.60;1.48;;;23.00;35.50;;;21.65;38.22;102245.88;12208292;19;20034;-76
2022/05/18 09:13:35;;;;;;;2.38;2.13;;;23.40;35.30;;;21.98;38.33;102263.69;12221075;19;21128;-77
2022/05/18 09:18:01;;;;;;;1.98;1.77;;;23.60;35.20;;;22.10;38.03;102268.00;12224489;19;20018;-77
2022/05/18 09:22:38;;;;;;;2.33;1.98;;;23.70;35.00;;;22.16;38.09;102257.84;12221329;19;20017;-77
2022/05/18 09:27:19;;;;;;;1.95;1.60;;;23.80;34.90;;;22.34;38.25;102261.72;12216541;19;20042;-78
2022/05/18 09:31:58;;;;;;;2.63;1.77;;;23.90;35.10;;;22.37;38.27;102252.66;12219250;19;20014;-77
2022/05/18 09:36:27;;;;;;;2.45;1.90;;;24.00;34.70;;;22.64;37.74;102269.03;12220356;19;20025;-78
2022/05/18 09:40:48;;;;;;;2.47;1.63;;;24.20;35.10;;;22.76;37.91;102264.50;12221367;19;20086;-79
2022/05/18 09:44:58;;;;;;;3.25;2.00;;;24.30;34.80;;;22.64;37.77;102204.28;12215729;19;20021;-79
2022/05/18 09:49:34;;;;;;;3.75;2.10;;;24.40;34.80;;;23.06;37.94;102255.84;12218385;19;20346;-80
2022/05/18 09:53:38;;;;;;;2.05;1.73;;;24.70;34.90;;;22.90;37.72;102202.94;12223181;19;20038;-80
2022/05/18 09:57:57;;;;;;;2.10;1.90;;;24.70;34.80;;;23.21;37.46;102220.84;12226496;19;20018;-79
2022/05/18 10:10:44;;;;;;;2.20;2.03;;;25.20;34.90;;;23.80;37.13;102225.53;12226134;19;20015;-79
2022/05/18 10:14:57;;;;;;;2.47;2.13;;;25.40;34.80;;;24.02;37.00;102237.84;12225426;19;20530;-79
2022/05/18 10:19:02;;;;;;;2.00;1.80;;;25.50;34.40;;;24.10;37.40;102230.00;12225704;19;20026;-79
2022/05/18 10:23:04;;;;;;;3.67;2.05;;;25.70;34.70;;;24.21;37.17;102227.19;12224722;19;20017;-79
2022/05/18 10:27:15;;;;;;;2.80;2.08;;;25.70;34.60;;;24.26;37.08;102224.97;12226692;19;20022;-79
2022/05/18 10:31:55;;;;;;;1.98;1.80;;;25.90;34.70;;;24.41;36.86;102208.53;12225083;19;20380;-79
2022/05/18 10:36:06;;;;;;;2.45;2.25;;;26.00;34.60;;;24.59;37.26;102216.75;12223080;19;20007;-79
2022/05/18 10:40:19;;;;;;;3.28;2.08;;;26.10;34.90;;;24.63;37.26;102189.63;12227074;19;20046;-79
2022/05/18 10:44:22;;;;;;;3.88;2.20;;;26.30;34.90;;;24.87;36.95;102193.66;12222837;19;20041;-79
2022/05/18 10:48:27;;;;;;;3.25;2.78;;;26.40;35.00;;;25.05;36.66;102204.47;12223990;19;20150;-79
2022/05/18 10:52:33;;;;;;;3.03;2.33;;;26.50;34.60;;;25.19;36.91;102204.03;12225842;19;20026;-79
2022/05/18 10:56:34;;;;;;;6.03;2.63;;;26.70;34.60;;;25.22;36.56;102200.25;12225365;19;20018;-79
2022/05/18 11:00:55;;;;;;;4.05;2.53;;;26.80;34.30;;;25.23;36.25;102199.28;12224200;19;20035;-78
2022/05/18 11:05:15;;;;;;;3.25;2.28;;;26.80;34.40;;;24.90;36.19;102134.59;12201876;19;20449;-78
2022/05/18 11:09:30;;;;;;;2.63;2.42;;;26.90;34.20;;;25.31;36.40;102178.81;12217526;19;20115;-78
2022/05/18 11:14:11;;;;;;;2.60;2.40;;;27.00;34.20;;;25.49;36.53;102184.25;12212746;19;20150;-79
2022/05/18 11:18:54;;;;;;;4.30;2.50;;;27.10;34.30;;;25.57;36.39;102187.03;12226749;19;20019;-77
2022/05/18 11:23:39;;;;;;;3.40;2.33;;;27.10;34.30;;;25.68;36.03;102175.31;12223690;19;20090;-78
2022/05/18 11:27:55;;;;;;;3.50;2.40;;;27.20;33.50;;;25.66;35.79;102142.50;12224853;19;20011;-78
2022/05/18 11:32:23;;;;;;;2.55;2.25;;;27.30;33.90;;;25.75;35.77;102146.09;12221807;19;20113;-79
2022/05/18 11:37:08;;;;;;;4.30;2.10;;;27.40;34.10;;;26.02;36.05;102146.09;12223470;19;20018;-79
2022/05/18 11:42:04;;;;;;;2.47;2.20;;;27.50;34.20;;;26.22;35.27;102151.31;12193403;19;20019;-78
2022/05/18 11:46:39;;;;;;;3.15;1.77;;;27.70;33.50;;;26.01;35.15;102101.59;12211355;19;20022;-78
2022/05/18 11:51:00;;;;;;;2.35;1.60;;;27.80;33.30;;;26.42;34.62;102152.84;12212786;19;20029;-78
2022/05/18 11:55:48;;;;;;;2.05;1.70;;;27.90;32.60;;;26.46;34.63;102161.41;12209932;19;20023;-78
2022/05/18 12:00:53;;;;;;;3.45;1.90;;;28.00;33.30;;;26.54;34.88;102149.97;12214848;19;20019;-78
2022/05/18 12:05:28;;;;;;;1.75;1.65;;;28.00;33.20;;;26.72;34.96;102152.63;12208949;19;20047;-78
2022/05/18 12:09:48;;;;;;;2.55;2.30;;;28.10;33.10;;;26.64;34.49;102130.09;12213359;19;20472;-79
2022/05/18 12:14:21;;;;;;;2.45;2.22;;;28.30;33.00;;;26.74;34.39;102150.63;12210622;19;20015;-78
2022/05/18 12:18:40;;;;;;;3.67;2.25;;;28.30;33.40;;;26.75;34.37;102147.78;12214578;19;20035;-79
2022/05/18 12:22:52;;;;;;;2.28;2.08;;;28.30;32.70;;;26.63;34.45;102111.53;12221125;19;20018;-78
2022/05/18 12:26:56;;;;;;;4.90;2.17;;;28.40;33.10;;;26.82;34.53;102116.69;12218482;19;20010;-78
2022/05/18 12:31:00;;;;;;;2.85;2.20;;;28.30;33.10;;;26.93;34.18;102119.09;12216627;19;20019;-79
2022/05/18 12:35:22;;;;;;;2.42;2.20;;;28.80;33.20;;;27.04;33.96;102126.03;12217782;19;20015;-78
2022/05/18 12:39:43;;;;;;;4.78;2.63;;;28.60;32.70;;;26.96;34.02;102107.22;12222194;19;20085;-79
2022/05/18 12:43:44;;;;;;;3.58;2.50;;;28.60;32.60;;;27.04;34.35;102123.34;12228720;19;20010;-79
2022/05/18 12:47:52;;;;;;;3.50;2.45;;;28.60;32.90;;;27.09;34.07;102118.34;12230889;19;20010;-78
2022/05/18 12:52:03;;;;;;;2.25;2.05;;;28.70;32.70;;;27.04;33.88;102101.06;12232654;19;20044;-79
2022/05/18 12:56:20;;;;;;;3.58;2.63;;;28.70;32.60;;;27.12;33.70;102118.03;12230437;19;20563;-78
2022/05/18 13:00:25;;;;;;;5.40;2.33;;;28.60;32.60;;;27.20;33.61;102119.09;12232041;19;20010;-78
2022/05/18 13:04:26;;;;;;;3.42;2.47;;;28.70;32.70;;;27.25;33.66;102117.63;12227556;19;20020;-78
2022/05/18 13:08:32;;;;;;;3.85;2.58;;;28.70;32.60;;;27.29;33.74;102113.59;12228445;19;20014;-78
2022/05/18 13:13:17;;;;;;;3.60;2.47;;;28.80;32.30;;;27.28;33.39;102105.72;12228531;19;20037;-78
2022/05/18 13:17:21;;;;;;;4.55;2.35;;;28.70;32.10;;;27.20;33.40;102109.22;12230260;19;20014;-79
2022/05/18 13:21:28;;;;;;;4.10;2.67;;;28.80;32.30;;;27.15;33.66;102085.50;12228859;19;20491;-78
2022/05/18 13:25:35;;;;;;;2.65;2.20;;;28.90;32.60;;;27.28;33.32;102097.69;12227211;19;20298;-79
2022/05/18 13:29:36;;;;;;;5.47;2.60;;;28.80;32.20;;;27.37;33.52;102102.06;12226658;19;20018;-78
2022/05/18 13:33:53;;;;;;;4.15;2.47;;;28.80;32.20;;;27.41;32.66;102098.06;12226893;19;20052;-78
2022/05/18 13:38:19;;;;;;;3.60;2.42;;;28.90;32.00;;;27.42;33.03;102093.53;12227928;19;20022;-79
2022/05/18 13:42:31;;;;;;;2.08;1.98;;;28.90;32.20;;;27.44;32.95;102081.66;12227290;19;20010;-79
2022/05/18 13:46:34;;;;;;;3.42;2.70;;;28.90;32.00;;;27.41;33.06;102081.09;12216262;19;20302;-79
2022/05/18 13:50:59;;;;;;;6.82;2.88;;;29.00;32.10;;;27.46;32.92;102078.78;12224373;19;20014;-79
2022/05/18 13:55:05;;;;;;;3.13;2.40;;;28.90;31.90;;;27.47;32.72;102077.81;12223383;19;20472;-79
2022/05/18 13:59:20;;;;;;;2.13;2.03;;;29.00;31.80;;;27.30;32.61;102044.69;12224364;19;20903;-79
2022/05/18 14:03:28;;;;;;;;;;;28.90;31.60;;;27.31;33.05;102044.53;12221161;19;20085;-79
2022/05/18 14:07:36;;;;;;;2.20;2.00;;;29.20;32.80;;;27.49;32.81;102054.31;12229073;19;19933;-79
2022/05/18 14:11:38;;;;;;;6.97;2.33;;;29.00;32.00;;;27.63;32.73;102061.75;12227430;19;20042;-79
2022/05/18 14:15:41;;;;;;;2.97;1.92;;;29.00;31.60;;;27.68;32.56;102058.53;12225284;19;20014;-79
2022/05/18 14:20:07;;;;;;;1.85;1.75;;;29.00;31.60;;;27.55;32.06;102038.41;12228194;19;20015;-79
2022/05/18 14:24:18;;;;;;;2.45;1.85;;;29.10;31.50;;;27.65;32.04;102034.72;12220075;19;20479;-79
2022/05/18 14:28:30;;;;;;;1.60;1.50;;;29.10;31.40;;;27.47;31.85;101982.03;12226548;19;20011;-79
2022/05/18 14:32:53;;;;;;;2.45;1.63;;;29.20;31.60;;;27.70;32.08;102025.16;12225098;19;20015;-79
2022/05/18 14:36:57;;;;;;;2.45;1.70;;;29.30;31.20;;;27.91;32.26;102043.50;12227298;19;20378;-79
2022/05/18 14:41:07;;;;;;;2.45;1.60;;;29.20;31.30;;;27.73;31.78;102007.88;12218072;19;20106;-79
2022/05/18 14:45:22;;;;;;;3.00;1.65;;;29.40;31.00;;;27.91;31.33;102045.38;12203847;19;20664;-79
2022/05/18 14:49:36;;;;;;;3.28;2.17;;;29.40;30.90;;;27.85;31.48;102027.25;12221454;19;20102;-79
2022/05/18 14:53:59;;;;;;;1.90;1.80;;;29.60;31.10;;;27.90;31.49;102033.78;12225173;19;20018;-79
2022/05/18 14:58:02;;;;;;;5.88;2.10;;;29.40;31.20;;;27.91;31.95;102021.19;12222894;19;20025;-79
2022/05/18 15:02:07;;;;;;;2.10;1.90;;;29.30;31.10;;;28.02;31.63;102028.91;12218471;19;20018;-78
2022/05/18 15:06:13;;;;;;;2.55;1.80;;;29.50;31.30;;;27.97;31.76;102020.50;12225628;19;20014;-79
2022/05/18 15:10:25;;;;;;;4.00;1.90;;;29.50;31.20;;;28.05;31.18;102027.75;12215399;19;20236;-79
2022/05/18 15:14:57;;;;;;;2.00;1.63;;;29.50;31.10;;;27.98;31.10;102012.31;12223234;19;20361;-79
2022/05/18 15:19:01;;;;;;;2.88;2.08;;;29.40;30.90;;;28.01;31.67;102016.50;12217167;19;20817;-79
2022/05/18 15:23:27;;;;;;;4.95;1.85;;;29.40;31.00;;;27.97;31.67;102009.78;12222977;19;20010;-79
2022/05/18 15:27:31;;;;;;;2.90;2.00;;;29.50;31.30;;;27.89;31.87;102007.91;12218773;19;20396;-79
2022/05/18 15:31:44;;;;;;;4.15;1.75;;;29.50;31.20;;;27.99;31.36;102013.13;12221019;19;20056;-79
2022/05/18 15:35:58;;;;;;;4.95;1.88;;;29.50;31.20;;;27.99;31.58;102003.22;12223733;19;20071;-79
2022/05/18 15:40:00;;;;;;;1.90;1.80;;;29.50;31.50;;;28.08;31.55;102009.44;12222485;19;20049;-79
2022/05/18 15:44:02;;;;;;;2.30;1.85;;;29.30;31.30;;;28.02;31.41;101996.69;12221396;19;20018;-79
2022/05/18 15:48:03;;;;;;;3.10;1.92;;;29.60;31.10;;;28.06;31.63;101997.19;12219886;19;20037;-79
2022/05/18 15:52:10;;;;;;;2.13;1.77;;;29.60;31.10;;;28.06;31.58;101997.19;12217705;19;20022;-79
2022/05/18 15:56:23;;;;;;;2.28;2.17;;;29.50;31.10;;;28.05;31.10;101996.34;12216896;19;20042;-77
2022/05/18 16:00:27;;;;;;;1.98;1.80;;;29.60;31.10;;;28.05;31.15;102003.56;12220065;19;20413;-78
2022/05/18 16:04:28;;;;;;;2.45;1.83;;;29.60;31.00;;;28.07;31.17;102005.09;12217771;19;20879;-79
2022/05/18 16:08:30;;;;;;;3.78;2.08;;;29.60;31.00;;;27.97;31.31;102005.25;12219747;19;20014;-79
2022/05/18 16:12:37;;;;;;;2.78;2.05;;;29.60;31.10;;;27.82;31.00;101993.50;12220427;19;20026;-79
2022/05/18 16:16:39;;;;;;;3.17;2.40;;;29.20;30.90;;;27.77;31.32;101988.59;12221431;19;20049;-79
2022/05/18 16:20:41;;;;;;;1.90;1.70;;;29.60;31.20;;;27.77;31.42;101987.78;12217718;19;20025;-79
2022/05/18 16:24:44;;;;;;;3.88;2.03;;;29.40;31.10;;;27.58;31.29;101962.09;12220186;19;20022;-78
2022/05/18 16:28:45;;;;;;;4.03;1.80;;;29.20;31.00;;;27.66;31.33;101970.16;12219794;19;20080;-79
2022/05/18 16:32:47;;;;;;;2.17;1.95;;;29.10;30.90;;;27.42;31.08;101927.19;12215757;19;20023;-78
2022/05/18 16:36:49;;;;;;;3.78;1.95;;;29.30;30.90;;;27.59;31.11;101964.59;12216210;19;20484;-78
2022/05/18 16:40:57;;;;;;;2.65;2.00;;;29.40;31.20;;;27.54;31.65;101964.28;12216887;19;20392;-78
2022/05/18 16:44:58;;;;;;;1.98;1.60;;;29.40;31.00;;;27.55;31.11;101963.25;12218575;19;20034;-78
2022/05/18 16:49:00;;;;;;;5.53;1.98;;;29.10;31.00;;;27.56;31.25;101980.19;12218136;19;20043;-78
2022/05/18 16:53:02;;;;;;;2.35;1.70;;;29.00;30.90;;;27.37;30.76;101951.81;12220692;19;20031;-78
2022/05/18 16:57:08;;;;;;;1.80;1.70;;;29.10;30.70;;;27.47;31.20;101990.09;12223983;19;20026;-78
2022/05/18 17:01:11;;;;;;;2.42;2.00;;;29.00;30.80;;;27.33;31.30;101971.94;12222163;19;20508;-78
2022/05/18 17:09:35;;;;;;;1.75;1.65;;;28.90;30.90;;;27.26;31.40;101965.56;12220790;19;20010;-78
2022/05/18 17:13:37;;;;;;;2.90;1.88;;;28.90;31.10;;;27.28;31.56;101974.28;12218100;19;20014;-78
2022/05/18 17:17:40;;;;;;;5.68;1.95;;;28.80;31.00;;;27.17;30.96;101955.78;12218778;19;20014;-78
2022/05/18 17:21:43;;;;;;;3.88;2.17;;;28.80;31.00;;;27.10;31.28;101964.47;12220550;19;20017;-78
2022/05/18 17:25:48;;;;;;;2.17;1.95;;;28.80;31.00;;;26.95;31.21;101947.34;12225344;19;20018;-78
2022/05/18 17:29:56;;;;;;;2.40;2.13;;;28.70;31.00;;;26.89;31.53;101951.50;12220943;19;20417;-78
2022/05/18 17:33:58;;;;;;;1.70;1.60;;;28.70;31.20;;;26.67;31.24;101922.59;12223576;19;20011;-78